sensor_id;sensor_type;location;lat;lon;timestamp;temperature;humidity
47779;DHT22;33538;48.432;11.350;2023-01-30T00:02:03;0.30;99.90
47779;DHT22;33538;48.432;11.350;2023-01-30T00:04:32;0.20;99.90
47779;DHT22;33538;48.432;11.350;2023-01-30T00:06:58;0.20;99.90
47779;DHT22;33538;48.432;11.350;2023-01-30T00:09:25;0.20;99.90
47779;DHT22;33538;48.432;11.350;2023-01-30T00:11:52;0.20;99.90
47779;DHT22;33538;48.432;11.350;2023-01-30T00:14:18;0.20;99.90
47779;DHT22;33538;48.432;11.350;2023-01-30T00:16:45;0.10;99.90
47779;DHT22;33538;48.432;11.350;2023-01-30T00:19:12;0.10;99.90
47779;DHT22;33538;48.432;11.350;2023-01-30T00:21:40;0.10;99.90
47779;DHT22;33538;48.432;11.350;2023-01-30T00:24:07;0.10;99.90
47779;DHT22;33538;48.432;11.350;2023-01-30T00:26:34;0.20;99.90
47779;DHT22;33538;48.432;11.350;2023-01-30T00:29:01;0.10;99.90
47779;DHT22;33538;48.432;11.350;2023-01-30T00:31:27;0.10;99.90
47779;DHT22;33538;48.432;11.350;2023-01-30T00:33:54;0.10;99.90
47779;DHT22;33538;48.432;11.350;2023-01-30T00:36:21;0.10;99.90
47779;DHT22;33538;48.432;11.350;2023-01-30T00:38:49;0.10;99.90
47779;DHT22;33538;48.432;11.350;2023-01-30T00:41:16;0.10;99.90
47779;DHT22;33538;48.432;11.350;2023-01-30T00:43:43;0.10;99.90
47779;DHT22;33538;48.432;11.350;2023-01-30T00:46:14;0.00;99.90
47779;DHT22;33538;48.432;11.350;2023-01-30T00:48:41;0.00;99.90
47779;DHT22;33538;48.432;11.350;2023-01-30T00:51:08;0.00;99.90
47779;DHT22;33538;48.432;11.350;2023-01-30T00:53:35;0.00;99.90
47779;DHT22;33538;48.432;11.350;2023-01-30T00:56:03;-0.10;99.90
47779;DHT22;33538;48.432;11.350;2023-01-30T00:58:30;-0.10;99.90
47779;DHT22;33538;48.432;11.350;2023-01-30T01:00:57;-0.10;99.90
47779;DHT22;33538;48.432;11.350;2023-01-30T01:03:24;-0.10;99.90
47779;DHT22;33538;48.432;11.350;2023-01-30T01:05:51;0.00;99.90
47779;DHT22;33538;48.432;11.350;2023-01-30T01:08:17;-0.10;99.90
47779;DHT22;33538;48.432;11.350;2023-01-30T01:10:44;-0.10;99.90
47779;DHT22;33538;48.432;11.350;2023-01-30T01:13:12;-0.10;99.90
47779;DHT22;33538;48.432;11.350;2023-01-30T01:15:39;-0.10;99.90
47779;DHT22;33538;48.432;11.350;2023-01-30T01:18:06;-0.10;99.90
47779;DHT22;33538;48.432;11.350;2023-01-30T01:20:33;-0.10;99.90
47779;DHT22;33538;48.432;11.350;2023-01-30T01:22:59;-0.10;99.90
47779;DHT22;33538;48.432;11.350;2023-01-30T01:25:26;-0.10;99.90
47779;DHT22;33538;48.432;11.350;2023-01-30T01:27:53;-0.10;99.90
47779;DHT22;33538;48.432;11.350;2023-01-30T01:30:21;-0.20;99.90
47779;DHT22;33538;48.432;11.350;2023-01-30T01:32:48;-0.20;99.90
47779;DHT22;33538;48.432;11.350;2023-01-30T01:35:15;-0.20;99.90
47779;DHT22;33538;48.432;11.350;2023-01-30T01:37:42;-0.20;99.90
47779;DHT22;33538;48.432;11.350;2023-01-30T01:40:16;-0.10;99.90
47779;DHT22;33538;48.432;11.350;2023-01-30T01:42:44;-0.20;99.90
47779;DHT22;33538;48.432;11.350;2023-01-30T01:45:16;-0.20;99.90
47779;DHT22;33538;48.432;11.350;2023-01-30T01:47:51;-0.20;99.90
47779;DHT22;33538;48.432;11.350;2023-01-30T01:50:22;-0.20;99.90
47779;DHT22;33538;48.432;11.350;2023-01-30T01:52:52;-0.20;99.90
47779;DHT22;33538;48.432;11.350;2023-01-30T01:55:20;-0.20;99.90
47779;DHT22;33538;48.432;11.350;2023-01-30T01:57:51;-0.20;99.90
47779;DHT22;33538;48.432;11.350;2023-01-30T02:00:20;-0.20;99.90
47779;DHT22;33538;48.432;11.350;2023-01-30T02:02:53;-0.30;99.90
47779;DHT22;33538;48.432;11.350;2023-01-30T02:05:21;-0.20;99.90
47779;DHT22;33538;48.432;11.350;2023-01-30T02:07:53;-0.20;99.90
47779;DHT22;33538;48.432;11.350;2023-01-30T02:10:29;-0.20;99.90
47779;DHT22;33538;48.432;11.350;2023-01-30T02:12:57;-0.20;99.90
47779;DHT22;33538;48.432;11.350;2023-01-30T02:15:24;-0.20;99.90
47779;DHT22;33538;48.432;11.350;2023-01-30T02:17:52;-0.20;99.90
47779;DHT22;33538;48.432;11.350;2023-01-30T02:20:26;-0.20;99.90
47779;DHT22;33538;48.432;11.350;2023-01-30T02:23:20;-0.20;99.90
47779;DHT22;33538;48.432;11.350;2023-01-30T02:26:19;-0.20;99.90
47779;DHT22;33538;48.432;11.350;2023-01-30T02:29:15;-0.20;99.90
47779;DHT22;33538;48.432;11.350;2023-01-30T02:31:50;-0.20;99.90
47779;DHT22;33538;48.432;11.350;2023-01-30T02:34:39;-0.20;99.90
47779;DHT22;33538;48.432;11.350;2023-01-30T02:37:15;-0.20;99.90
47779;DHT22;33538;48.432;11.350;2023-01-30T02:39:53;-0.20;99.90
47779;DHT22;33538;48.432;11.350;2023-01-30T02:42:31;-0.20;99.90
47779;DHT22;33538;48.432;11.350;2023-01-30T02:45:04;-0.20;99.90
47779;DHT22;33538;48.432;11.350;2023-01-30T02:47:38;-0.20;99.90
47779;DHT22;33538;48.432;11.350;2023-01-30T02:50:09;-0.30;99.90
47779;DHT22;33538;48.432;11.350;2023-01-30T02:52:38;-0.30;99.90
47779;DHT22;33538;48.432;11.350;2023-01-30T02:55:08;-0.40;99.90
47779;DHT22;33538;48.432;11.350;2023-01-30T02:57:35;-0.30;99.90
47779;DHT22;33538;48.432;11.350;2023-01-30T03:00:03;-0.30;99.90
47779;DHT22;33538;48.432;11.350;2023-01-30T03:05:38;-0.20;99.90
47779;DHT22;33538;48.432;11.350;2023-01-30T03:08:17;-0.20;99.90
47779;DHT22;33538;48.432;11.350;2023-01-30T03:10:52;-0.20;99.90
47779;DHT22;33538;48.432;11.350;2023-01-30T03:13:27;-0.20;99.90
47779;DHT22;33538;48.432;11.350;2023-01-30T03:16:02;-0.20;99.90
47779;DHT22;33538;48.432;11.350;2023-01-30T03:18:31;-0.20;99.90
47779;DHT22;33538;48.432;11.350;2023-01-30T03:21:03;-0.20;99.90
47779;DHT22;33538;48.432;11.350;2023-01-30T03:23:30;-0.30;99.90
47779;DHT22;33538;48.432;11.350;2023-01-30T03:25:57;-0.30;99.90
47779;DHT22;33538;48.432;11.350;2023-01-30T03:28:25;-0.30;99.90
47779;DHT22;33538;48.432;11.350;2023-01-30T03:30:52;-0.30;99.90
47779;DHT22;33538;48.432;11.350;2023-01-30T03:33:19;-0.30;99.90
47779;DHT22;33538;48.432;11.350;2023-01-30T03:35:47;-0.30;99.90
47779;DHT22;33538;48.432;11.350;2023-01-30T03:38:14;-0.40;99.90
47779;DHT22;33538;48.432;11.350;2023-01-30T03:40:41;-0.40;99.90
47779;DHT22;33538;48.432;11.350;2023-01-30T03:43:07;-0.40;99.90
47779;DHT22;33538;48.432;11.350;2023-01-30T03:45:34;-0.40;99.90
47779;DHT22;33538;48.432;11.350;2023-01-30T03:48:01;-0.30;99.90
47779;DHT22;33538;48.432;11.350;2023-01-30T03:50:28;-0.30;99.90
47779;DHT22;33538;48.432;11.350;2023-01-30T03:52:56;-0.30;99.90
47779;DHT22;33538;48.432;11.350;2023-01-30T03:55:23;-0.30;99.90
47779;DHT22;33538;48.432;11.350;2023-01-30T03:57:54;-0.30;99.90
47779;DHT22;33538;48.432;11.350;2023-01-30T04:00:21;-0.20;99.90
47779;DHT22;33538;48.432;11.350;2023-01-30T04:02:48;-0.30;99.90
47779;DHT22;33538;48.432;11.350;2023-01-30T04:05:15;-0.30;99.90
47779;DHT22;33538;48.432;11.350;2023-01-30T04:07:42;-0.30;99.90
47779;DHT22;33538;48.432;11.350;2023-01-30T04:10:11;-0.30;99.90
47779;DHT22;33538;48.432;11.350;2023-01-30T04:12:38;-0.20;99.90
47779;DHT22;33538;48.432;11.350;2023-01-30T04:15:05;-0.30;99.90
47779;DHT22;33538;48.432;11.350;2023-01-30T04:17:32;-0.20;99.90
47779;DHT22;33538;48.432;11.350;2023-01-30T04:19:59;-0.30;99.90
47779;DHT22;33538;48.432;11.350;2023-01-30T04:22:26;-0.20;99.90
47779;DHT22;33538;48.432;11.350;2023-01-30T04:24:52;-0.20;99.90
47779;DHT22;33538;48.432;11.350;2023-01-30T04:27:20;-0.20;99.90
47779;DHT22;33538;48.432;11.350;2023-01-30T04:29:47;-0.20;99.90
47779;DHT22;33538;48.432;11.350;2023-01-30T04:32:14;-0.20;99.90
47779;DHT22;33538;48.432;11.350;2023-01-30T04:34:41;-0.20;99.90
47779;DHT22;33538;48.432;11.350;2023-01-30T04:37:07;-0.20;99.90
47779;DHT22;33538;48.432;11.350;2023-01-30T04:39:34;-0.20;99.90
47779;DHT22;33538;48.432;11.350;2023-01-30T04:42:01;-0.20;99.90
47779;DHT22;33538;48.432;11.350;2023-01-30T04:44:29;-0.30;99.90
47779;DHT22;33538;48.432;11.350;2023-01-30T04:46:56;-0.20;99.90
47779;DHT22;33538;48.432;11.350;2023-01-30T04:49:23;-0.20;99.90
47779;DHT22;33538;48.432;11.350;2023-01-30T04:51:49;-0.30;99.90
47779;DHT22;33538;48.432;11.350;2023-01-30T04:54:16;-0.30;99.90
47779;DHT22;33538;48.432;11.350;2023-01-30T04:56:43;-0.30;99.90
47779;DHT22;33538;48.432;11.350;2023-01-30T04:59:10;-0.30;99.90
47779;DHT22;33538;48.432;11.350;2023-01-30T05:01:38;-0.30;99.90
47779;DHT22;33538;48.432;11.350;2023-01-30T05:04:06;-0.30;99.90
47779;DHT22;33538;48.432;11.350;2023-01-30T05:06:33;-0.30;99.90
47779;DHT22;33538;48.432;11.350;2023-01-30T05:09:00;-0.30;99.90
47779;DHT22;33538;48.432;11.350;2023-01-30T05:11:28;-0.30;99.90
47779;DHT22;33538;48.432;11.350;2023-01-30T05:13:55;-0.30;99.90
47779;DHT22;33538;48.432;11.350;2023-01-30T05:16:22;-0.30;99.90
47779;DHT22;33538;48.432;11.350;2023-01-30T05:18:50;-0.30;99.90
47779;DHT22;33538;48.432;11.350;2023-01-30T05:21:19;-0.30;99.90
47779;DHT22;33538;48.432;11.350;2023-01-30T05:23:46;-0.30;99.90
47779;DHT22;33538;48.432;11.350;2023-01-30T05:26:14;-0.30;99.90
47779;DHT22;33538;48.432;11.350;2023-01-30T05:28:41;-0.40;99.90
47779;DHT22;33538;48.432;11.350;2023-01-30T05:31:10;-0.40;99.90
47779;DHT22;33538;48.432;11.350;2023-01-30T05:33:37;-0.30;99.90
47779;DHT22;33538;48.432;11.350;2023-01-30T05:36:07;-0.30;99.90
47779;DHT22;33538;48.432;11.350;2023-01-30T05:38:37;-0.30;99.90
47779;DHT22;33538;48.432;11.350;2023-01-30T05:41:05;-0.30;99.90
47779;DHT22;33538;48.432;11.350;2023-01-30T05:43:33;-0.30;99.90
47779;DHT22;33538;48.432;11.350;2023-01-30T05:46:01;-0.30;99.90
47779;DHT22;33538;48.432;11.350;2023-01-30T05:48:28;-0.30;99.90
47779;DHT22;33538;48.432;11.350;2023-01-30T05:50:56;-0.30;99.90
47779;DHT22;33538;48.432;11.350;2023-01-30T05:53:26;-0.30;99.90
47779;DHT22;33538;48.432;11.350;2023-01-30T05:55:54;-0.30;99.90
47779;DHT22;33538;48.432;11.350;2023-01-30T05:58:20;-0.30;99.90
47779;DHT22;33538;48.432;11.350;2023-01-30T06:00:47;-0.30;99.90
47779;DHT22;33538;48.432;11.350;2023-01-30T06:03:14;-0.30;99.90
47779;DHT22;33538;48.432;11.350;2023-01-30T06:05:41;-0.30;99.90
47779;DHT22;33538;48.432;11.350;2023-01-30T06:08:08;-0.30;99.90
47779;DHT22;33538;48.432;11.350;2023-01-30T06:10:36;-0.30;99.90
47779;DHT22;33538;48.432;11.350;2023-01-30T06:13:03;-0.30;99.90
47779;DHT22;33538;48.432;11.350;2023-01-30T06:15:30;-0.30;99.90
47779;DHT22;33538;48.432;11.350;2023-01-30T06:17:56;-0.30;99.90
47779;DHT22;33538;48.432;11.350;2023-01-30T06:20:23;-0.30;99.90
47779;DHT22;33538;48.432;11.350;2023-01-30T06:22:50;-0.20;99.90
47779;DHT22;33538;48.432;11.350;2023-01-30T06:25:17;-0.30;99.90
47779;DHT22;33538;48.432;11.350;2023-01-30T06:27:46;-0.30;99.90
47779;DHT22;33538;48.432;11.350;2023-01-30T06:30:13;-0.20;99.90
47779;DHT22;33538;48.432;11.350;2023-01-30T06:32:40;-0.20;99.90
47779;DHT22;33538;48.432;11.350;2023-01-30T06:35:07;-0.20;99.90
47779;DHT22;33538;48.432;11.350;2023-01-30T06:37:34;-0.20;99.90
47779;DHT22;33538;48.432;11.350;2023-01-30T06:40:01;-0.20;99.90
47779;DHT22;33538;48.432;11.350;2023-01-30T06:42:27;-0.20;99.90
47779;DHT22;33538;48.432;11.350;2023-01-30T06:44:55;-0.20;99.90
47779;DHT22;33538;48.432;11.350;2023-01-30T06:47:22;-0.20;99.90
47779;DHT22;33538;48.432;11.350;2023-01-30T06:49:49;-0.20;99.90
47779;DHT22;33538;48.432;11.350;2023-01-30T06:52:16;-0.20;99.90
47779;DHT22;33538;48.432;11.350;2023-01-30T06:54:42;-0.20;99.90
47779;DHT22;33538;48.432;11.350;2023-01-30T06:57:09;-0.10;99.90
47779;DHT22;33538;48.432;11.350;2023-01-30T06:59:36;-0.10;99.90
47779;DHT22;33538;48.432;11.350;2023-01-30T07:02:04;-0.20;99.90
47779;DHT22;33538;48.432;11.350;2023-01-30T07:04:31;-0.10;99.90
47779;DHT22;33538;48.432;11.350;2023-01-30T07:06:58;-0.10;99.90
47779;DHT22;33538;48.432;11.350;2023-01-30T07:09:25;-0.10;99.90
47779;DHT22;33538;48.432;11.350;2023-01-30T07:11:51;-0.10;99.90
47779;DHT22;33538;48.432;11.350;2023-01-30T07:14:18;-0.10;99.90
47779;DHT22;33538;48.432;11.350;2023-01-30T07:16:45;-0.10;99.90
47779;DHT22;33538;48.432;11.350;2023-01-30T07:19:13;-0.10;99.90
47779;DHT22;33538;48.432;11.350;2023-01-30T07:21:42;-0.10;99.90
47779;DHT22;33538;48.432;11.350;2023-01-30T07:24:09;-0.10;99.90
47779;DHT22;33538;48.432;11.350;2023-01-30T07:26:36;-0.10;99.90
47779;DHT22;33538;48.432;11.350;2023-01-30T07:29:02;-0.10;99.90
47779;DHT22;33538;48.432;11.350;2023-01-30T07:31:30;-0.10;99.90
47779;DHT22;33538;48.432;11.350;2023-01-30T07:33:56;-0.10;99.90
47779;DHT22;33538;48.432;11.350;2023-01-30T07:36:24;-0.10;99.90
47779;DHT22;33538;48.432;11.350;2023-01-30T07:38:51;-0.10;99.90
47779;DHT22;33538;48.432;11.350;2023-01-30T07:41:18;-0.10;99.90
47779;DHT22;33538;48.432;11.350;2023-01-30T07:43:47;-0.10;99.90
47779;DHT22;33538;48.432;11.350;2023-01-30T07:46:14;-0.10;99.90
47779;DHT22;33538;48.432;11.350;2023-01-30T07:48:43;-0.10;99.90
47779;DHT22;33538;48.432;11.350;2023-01-30T07:51:10;-0.10;99.90
47779;DHT22;33538;48.432;11.350;2023-01-30T07:53:38;0.00;99.90
47779;DHT22;33538;48.432;11.350;2023-01-30T07:56:06;-0.10;99.90
47779;DHT22;33538;48.432;11.350;2023-01-30T07:58:34;0.00;99.90
47779;DHT22;33538;48.432;11.350;2023-01-30T08:01:01;-0.10;99.90
47779;DHT22;33538;48.432;11.350;2023-01-30T08:03:28;0.00;99.90
47779;DHT22;33538;48.432;11.350;2023-01-30T08:05:55;-0.10;99.90
47779;DHT22;33538;48.432;11.350;2023-01-30T08:08:21;0.00;99.90
47779;DHT22;33538;48.432;11.350;2023-01-30T08:10:49;0.00;99.90
47779;DHT22;33538;48.432;11.350;2023-01-30T08:13:16;0.00;99.90
47779;DHT22;33538;48.432;11.350;2023-01-30T08:15:43;0.00;99.90
47779;DHT22;33538;48.432;11.350;2023-01-30T08:18:10;0.00;99.90
47779;DHT22;33538;48.432;11.350;2023-01-30T08:20:37;0.10;99.90
47779;DHT22;33538;48.432;11.350;2023-01-30T08:23:04;0.10;99.90
47779;DHT22;33538;48.432;11.350;2023-01-30T08:25:30;0.10;99.90
47779;DHT22;33538;48.432;11.350;2023-01-30T08:27:58;0.10;99.90
47779;DHT22;33538;48.432;11.350;2023-01-30T08:30:25;0.10;99.90
47779;DHT22;33538;48.432;11.350;2023-01-30T08:32:53;0.10;99.90
47779;DHT22;33538;48.432;11.350;2023-01-30T08:35:19;0.10;99.90
47779;DHT22;33538;48.432;11.350;2023-01-30T08:37:46;0.10;99.90
47779;DHT22;33538;48.432;11.350;2023-01-30T08:40:14;0.10;99.90
47779;DHT22;33538;48.432;11.350;2023-01-30T08:42:42;0.10;99.90
47779;DHT22;33538;48.432;11.350;2023-01-30T08:45:11;0.10;99.90
47779;DHT22;33538;48.432;11.350;2023-01-30T08:47:38;0.10;99.90
47779;DHT22;33538;48.432;11.350;2023-01-30T08:50:05;0.20;99.90
47779;DHT22;33538;48.432;11.350;2023-01-30T08:52:32;0.20;99.90
47779;DHT22;33538;48.432;11.350;2023-01-30T08:54:59;0.20;99.90
47779;DHT22;33538;48.432;11.350;2023-01-30T08:57:26;0.20;99.90
47779;DHT22;33538;48.432;11.350;2023-01-30T08:59:53;0.20;99.90
47779;DHT22;33538;48.432;11.350;2023-01-30T09:02:21;0.30;99.90
47779;DHT22;33538;48.432;11.350;2023-01-30T09:04:48;0.30;99.90
47779;DHT22;33538;48.432;11.350;2023-01-30T09:07:14;0.30;99.90
47779;DHT22;33538;48.432;11.350;2023-01-30T09:09:41;0.30;99.90
47779;DHT22;33538;48.432;11.350;2023-01-30T09:12:08;0.30;99.90
47779;DHT22;33538;48.432;11.350;2023-01-30T09:14:35;0.30;99.90
47779;DHT22;33538;48.432;11.350;2023-01-30T09:17:01;0.30;99.90
47779;DHT22;33538;48.432;11.350;2023-01-30T09:19:29;0.30;99.90
47779;DHT22;33538;48.432;11.350;2023-01-30T09:21:56;0.40;99.90
47779;DHT22;33538;48.432;11.350;2023-01-30T09:24:23;0.40;99.90
47779;DHT22;33538;48.432;11.350;2023-01-30T09:26:50;0.40;99.90
47779;DHT22;33538;48.432;11.350;2023-01-30T09:29:17;0.40;99.90
47779;DHT22;33538;48.432;11.350;2023-01-30T09:31:44;0.40;99.90
47779;DHT22;33538;48.432;11.350;2023-01-30T09:34:11;0.40;99.90
47779;DHT22;33538;48.432;11.350;2023-01-30T09:36:39;0.40;99.90
47779;DHT22;33538;48.432;11.350;2023-01-30T09:39:06;0.40;99.90
47779;DHT22;33538;48.432;11.350;2023-01-30T09:41:45;0.50;99.90
47779;DHT22;33538;48.432;11.350;2023-01-30T09:44:25;0.50;99.90
47779;DHT22;33538;48.432;11.350;2023-01-30T09:47:01;0.50;99.90
47779;DHT22;33538;48.432;11.350;2023-01-30T09:49:38;0.50;99.90
47779;DHT22;33538;48.432;11.350;2023-01-30T09:52:18;0.50;99.90
47779;DHT22;33538;48.432;11.350;2023-01-30T09:54:58;0.50;99.90
47779;DHT22;33538;48.432;11.350;2023-01-30T09:57:26;0.50;99.90
47779;DHT22;33538;48.432;11.350;2023-01-30T09:59:57;0.60;99.90
47779;DHT22;33538;48.432;11.350;2023-01-30T10:02:40;0.60;99.90
47779;DHT22;33538;48.432;11.350;2023-01-30T10:05:08;0.60;99.90
47779;DHT22;33538;48.432;11.350;2023-01-30T10:07:55;0.60;99.90
47779;DHT22;33538;48.432;11.350;2023-01-30T10:10:38;0.60;99.90
47779;DHT22;33538;48.432;11.350;2023-01-30T10:13:23;0.60;99.90
47779;DHT22;33538;48.432;11.350;2023-01-30T10:15:59;0.70;99.90
47779;DHT22;33538;48.432;11.350;2023-01-30T10:18:55;0.70;99.90
47779;DHT22;33538;48.432;11.350;2023-01-30T10:21:34;0.70;99.90
47779;DHT22;33538;48.432;11.350;2023-01-30T10:24:18;0.70;99.90
47779;DHT22;33538;48.432;11.350;2023-01-30T10:26:47;0.70;99.90
47779;DHT22;33538;48.432;11.350;2023-01-30T10:29:18;0.70;99.90
47779;DHT22;33538;48.432;11.350;2023-01-30T10:31:49;0.70;99.90
47779;DHT22;33538;48.432;11.350;2023-01-30T10:34:19;0.80;99.90
47779;DHT22;33538;48.432;11.350;2023-01-30T10:36:51;0.70;99.90
47779;DHT22;33538;48.432;11.350;2023-01-30T10:39:25;0.80;99.90
47779;DHT22;33538;48.432;11.350;2023-01-30T10:41:57;0.80;99.90
47779;DHT22;33538;48.432;11.350;2023-01-30T10:44:27;0.80;99.90
47779;DHT22;33538;48.432;11.350;2023-01-30T10:47:07;0.80;99.90
47779;DHT22;33538;48.432;11.350;2023-01-30T10:49:39;0.80;99.90
47779;DHT22;33538;48.432;11.350;2023-01-30T10:52:18;0.80;99.90
47779;DHT22;33538;48.432;11.350;2023-01-30T10:54:59;0.80;99.90
47779;DHT22;33538;48.432;11.350;2023-01-30T10:57:37;0.80;99.90
47779;DHT22;33538;48.432;11.350;2023-01-30T11:00:09;0.80;99.90
47779;DHT22;33538;48.432;11.350;2023-01-30T11:02:43;0.80;99.90
47779;DHT22;33538;48.432;11.350;2023-01-30T11:05:19;0.90;99.90
47779;DHT22;33538;48.432;11.350;2023-01-30T11:07:47;0.90;99.90
47779;DHT22;33538;48.432;11.350;2023-01-30T11:10:18;0.90;99.90
47779;DHT22;33538;48.432;11.350;2023-01-30T11:12:45;0.90;99.90
47779;DHT22;33538;48.432;11.350;2023-01-30T11:15:12;1.00;99.90
47779;DHT22;33538;48.432;11.350;2023-01-30T11:17:40;0.90;99.90
47779;DHT22;33538;48.432;11.350;2023-01-30T11:20:13;0.90;99.90
47779;DHT22;33538;48.432;11.350;2023-01-30T11:22:48;0.90;99.90
47779;DHT22;33538;48.432;11.350;2023-01-30T11:25:19;1.00;99.90
47779;DHT22;33538;48.432;11.350;2023-01-30T11:27:53;1.00;99.90
47779;DHT22;33538;48.432;11.350;2023-01-30T11:30:23;1.00;99.90
47779;DHT22;33538;48.432;11.350;2023-01-30T11:33:04;1.00;99.90
47779;DHT22;33538;48.432;11.350;2023-01-30T11:35:32;1.00;99.90
47779;DHT22;33538;48.432;11.350;2023-01-30T11:38:11;1.00;99.90
47779;DHT22;33538;48.432;11.350;2023-01-30T11:40:40;1.10;99.90
47779;DHT22;33538;48.432;11.350;2023-01-30T11:43:11;1.00;99.90
47779;DHT22;33538;48.432;11.350;2023-01-30T11:45:39;1.00;99.90
47779;DHT22;33538;48.432;11.350;2023-01-30T11:48:13;1.10;99.90
47779;DHT22;33538;48.432;11.350;2023-01-30T11:51:04;1.10;99.90
47779;DHT22;33538;48.432;11.350;2023-01-30T11:53:35;1.10;99.90
47779;DHT22;33538;48.432;11.350;2023-01-30T11:56:11;1.10;99.90
47779;DHT22;33538;48.432;11.350;2023-01-30T11:58:40;1.10;99.90
47779;DHT22;33538;48.432;11.350;2023-01-30T12:01:08;1.10;99.90
47779;DHT22;33538;48.432;11.350;2023-01-30T12:03:43;1.10;99.90
47779;DHT22;33538;48.432;11.350;2023-01-30T12:06:10;1.10;99.90
47779;DHT22;33538;48.432;11.350;2023-01-30T12:08:39;1.10;99.90
47779;DHT22;33538;48.432;11.350;2023-01-30T12:11:25;1.10;99.90
47779;DHT22;33538;48.432;11.350;2023-01-30T12:13:53;1.20;99.90
47779;DHT22;33538;48.432;11.350;2023-01-30T12:16:24;1.20;99.90
47779;DHT22;33538;48.432;11.350;2023-01-30T12:18:58;1.20;99.90
47779;DHT22;33538;48.432;11.350;2023-01-30T12:21:34;1.20;99.90
47779;DHT22;33538;48.432;11.350;2023-01-30T12:24:14;1.20;99.90
47779;DHT22;33538;48.432;11.350;2023-01-30T12:26:50;1.30;99.90
47779;DHT22;33538;48.432;11.350;2023-01-30T12:29:23;1.30;99.90
47779;DHT22;33538;48.432;11.350;2023-01-30T12:32:01;1.30;99.90
47779;DHT22;33538;48.432;11.350;2023-01-30T12:34:31;1.30;99.90
47779;DHT22;33538;48.432;11.350;2023-01-30T12:37:18;1.30;99.90
47779;DHT22;33538;48.432;11.350;2023-01-30T12:39:57;1.30;99.90
47779;DHT22;33538;48.432;11.350;2023-01-30T12:42:45;1.30;99.90
47779;DHT22;33538;48.432;11.350;2023-01-30T12:45:21;1.30;99.90
47779;DHT22;33538;48.432;11.350;2023-01-30T12:51:02;1.40;99.90
47779;DHT22;33538;48.432;11.350;2023-01-30T12:53:35;1.40;99.90
47779;DHT22;33538;48.432;11.350;2023-01-30T12:56:23;1.40;99.90
47779;DHT22;33538;48.432;11.350;2023-01-30T12:58:59;1.40;99.90
47779;DHT22;33538;48.432;11.350;2023-01-30T13:01:32;1.40;99.90
47779;DHT22;33538;48.432;11.350;2023-01-30T13:04:06;1.40;99.90
47779;DHT22;33538;48.432;11.350;2023-01-30T13:09:41;1.40;99.90
47779;DHT22;33538;48.432;11.350;2023-01-30T13:12:18;1.50;99.90
47779;DHT22;33538;48.432;11.350;2023-01-30T13:14:53;1.50;99.90
47779;DHT22;33538;48.432;11.350;2023-01-30T13:17:36;1.50;99.90
47779;DHT22;33538;48.432;11.350;2023-01-30T13:20:16;1.50;99.90
47779;DHT22;33538;48.432;11.350;2023-01-30T13:22:49;1.50;99.90
47779;DHT22;33538;48.432;11.350;2023-01-30T13:25:24;1.50;99.90
47779;DHT22;33538;48.432;11.350;2023-01-30T13:27:54;1.50;99.90
47779;DHT22;33538;48.432;11.350;2023-01-30T13:30:24;1.50;99.90
47779;DHT22;33538;48.432;11.350;2023-01-30T13:32:55;1.50;99.90
47779;DHT22;33538;48.432;11.350;2023-01-30T13:35:27;1.50;99.90
47779;DHT22;33538;48.432;11.350;2023-01-30T13:37:56;1.50;99.90
47779;DHT22;33538;48.432;11.350;2023-01-30T13:40:26;1.50;99.90
47779;DHT22;33538;48.432;11.350;2023-01-30T13:42:57;1.50;99.90
47779;DHT22;33538;48.432;11.350;2023-01-30T13:45:29;1.50;99.90
47779;DHT22;33538;48.432;11.350;2023-01-30T13:48:09;1.50;99.90
47779;DHT22;33538;48.432;11.350;2023-01-30T13:50:52;1.50;99.90
47779;DHT22;33538;48.432;11.350;2023-01-30T13:53:24;1.50;99.90
47779;DHT22;33538;48.432;11.350;2023-01-30T13:55:56;1.50;99.90
47779;DHT22;33538;48.432;11.350;2023-01-30T13:58:42;1.50;99.90
47779;DHT22;33538;48.432;11.350;2023-01-30T14:01:14;1.50;99.90
47779;DHT22;33538;48.432;11.350;2023-01-30T14:03:41;1.50;99.90
47779;DHT22;33538;48.432;11.350;2023-01-30T14:06:32;1.50;99.90
47779;DHT22;33538;48.432;11.350;2023-01-30T14:09:03;1.50;99.90
47779;DHT22;33538;48.432;11.350;2023-01-30T14:11:41;1.50;99.90
47779;DHT22;33538;48.432;11.350;2023-01-30T14:14:30;1.50;99.90
47779;DHT22;33538;48.432;11.350;2023-01-30T14:17:10;1.50;99.90
47779;DHT22;33538;48.432;11.350;2023-01-30T14:19:40;1.50;99.90
47779;DHT22;33538;48.432;11.350;2023-01-30T14:22:25;1.50;99.90
47779;DHT22;33538;48.432;11.350;2023-01-30T14:38:09;1.50;99.90
47779;DHT22;33538;48.432;11.350;2023-01-30T14:43:36;1.50;99.90
47779;DHT22;33538;48.432;11.350;2023-01-30T14:46:05;1.50;99.90
47779;DHT22;33538;48.432;11.350;2023-01-30T14:48:38;1.50;99.90
47779;DHT22;33538;48.432;11.350;2023-01-30T14:51:20;1.50;99.90
47779;DHT22;33538;48.432;11.350;2023-01-30T14:53:55;1.50;99.90
47779;DHT22;33538;48.432;11.350;2023-01-30T14:56:38;1.50;99.90
47779;DHT22;33538;48.432;11.350;2023-01-30T14:59:10;1.50;99.90
47779;DHT22;33538;48.432;11.350;2023-01-30T15:02:01;1.50;99.90
47779;DHT22;33538;48.432;11.350;2023-01-30T15:04:31;1.50;99.90
47779;DHT22;33538;48.432;11.350;2023-01-30T15:06:59;1.50;99.90
47779;DHT22;33538;48.432;11.350;2023-01-30T15:09:29;1.50;99.90
47779;DHT22;33538;48.432;11.350;2023-01-30T15:12:09;1.50;99.90
47779;DHT22;33538;48.432;11.350;2023-01-30T15:14:48;1.50;99.90
47779;DHT22;33538;48.432;11.350;2023-01-30T15:17:23;1.50;99.90
47779;DHT22;33538;48.432;11.350;2023-01-30T15:20:11;1.50;99.90
47779;DHT22;33538;48.432;11.350;2023-01-30T15:23:03;1.50;99.90
47779;DHT22;33538;48.432;11.350;2023-01-30T15:25:46;1.50;99.90
47779;DHT22;33538;48.432;11.350;2023-01-30T15:28:30;1.50;99.90
47779;DHT22;33538;48.432;11.350;2023-01-30T15:31:08;1.50;99.90
47779;DHT22;33538;48.432;11.350;2023-01-30T15:33:42;1.50;99.90
47779;DHT22;33538;48.432;11.350;2023-01-30T15:36:24;1.50;99.90
47779;DHT22;33538;48.432;11.350;2023-01-30T15:39:01;1.50;99.90
47779;DHT22;33538;48.432;11.350;2023-01-30T15:41:31;1.50;99.90
47779;DHT22;33538;48.432;11.350;2023-01-30T15:44:31;1.50;99.90
47779;DHT22;33538;48.432;11.350;2023-01-30T15:47:14;1.50;99.90
47779;DHT22;33538;48.432;11.350;2023-01-30T15:50:02;1.50;99.90
47779;DHT22;33538;48.432;11.350;2023-01-30T15:52:36;1.50;99.90
47779;DHT22;33538;48.432;11.350;2023-01-30T15:55:04;1.50;99.90
47779;DHT22;33538;48.432;11.350;2023-01-30T15:57:36;1.50;99.90
47779;DHT22;33538;48.432;11.350;2023-01-30T16:00:05;1.50;99.90
47779;DHT22;33538;48.432;11.350;2023-01-30T16:02:34;1.50;99.90
47779;DHT22;33538;48.432;11.350;2023-01-30T16:05:12;1.50;99.90
47779;DHT22;33538;48.432;11.350;2023-01-30T16:07:39;1.50;99.90
47779;DHT22;33538;48.432;11.350;2023-01-30T16:10:11;1.50;99.90
47779;DHT22;33538;48.432;11.350;2023-01-30T16:12:40;1.50;99.90
47779;DHT22;33538;48.432;11.350;2023-01-30T16:15:13;1.50;99.90